Time;durP1;ratioP1;P1;durP2;ratioP2;P2;SDS_P1;SDS_P2;PMS_P1;PMS_P2;Temp;Humidity;BMP_temperature;BMP_pressure;BME280_temperature;BME280_humidity;BME280_pressure;Samples;Min_cycle;Max_cycle;Signal;HPM_P1;HPM_P2
2023/03/13 00:01:10;;;;;;;42.00;20.30;;;-1.00;99.90;-2.10;99450;;;;592356;238;24031;-74
2023/03/13 00:03:41;;;;;;;35.97;19.80;;;-1.00;99.90;-2.10;99446;;;;592368;238;24129;-74
2023/03/13 00:06:06;;;;;;;39.30;20.63;;;-1.00;99.90;-2.10;99425;;;;592100;238;24026;-74
2023/03/13 00:08:34;;;;;;;41.10;21.37;;;-1.00;99.90;-2.10;99421;;;;592719;238;24069;-74
2023/03/13 00:11:05;;;;;;;42.77;20.87;;;-1.00;99.90;-2.10;99414;;;;592573;238;24020;-75
2023/03/13 00:13:32;;;;;;;34.40;19.23;;;-1.00;99.90;-2.20;99424;;;;592705;238;24045;-75
2023/03/13 00:16:04;;;;;;;41.90;20.83;;;-1.10;99.90;-2.30;99421;;;;602399;238;24015;-75
2023/03/13 00:18:32;;;;;;;30.17;18.17;;;-1.10;99.90;-2.30;99413;;;;592666;238;24043;-74
2023/03/13 00:21:06;;;;;;;38.30;18.23;;;-1.20;99.90;-2.30;99408;;;;602144;238;24007;-74
2023/03/13 00:23:34;;;;;;;34.13;18.80;;;-1.20;99.90;-2.30;99412;;;;592761;238;24030;-74
2023/03/13 00:26:04;;;;;;;30.97;17.70;;;-1.20;99.90;-2.30;99408;;;;590418;238;24024;-74
2023/03/13 00:28:32;;;;;;;35.50;17.97;;;-1.20;99.90;-2.30;99411;;;;602162;238;24019;-75
2023/03/13 00:31:09;;;;;;;35.33;18.07;;;-1.20;99.90;-2.30;99402;;;;592705;238;24004;-75
2023/03/13 00:33:40;;;;;;;33.77;18.07;;;-1.20;99.90;-2.30;99406;;;;592787;238;24043;-75
2023/03/13 00:36:08;;;;;;;34.83;17.57;;;-1.20;99.90;-2.30;99413;;;;602141;238;24031;-77
2023/03/13 00:38:39;;;;;;;28.10;16.90;;;-1.20;99.90;-2.20;99417;;;;592298;238;24044;-76
2023/03/13 00:41:04;;;;;;;36.43;18.10;;;-1.10;99.90;-2.20;99411;;;;592536;238;24068;-79
2023/03/13 00:43:32;;;;;;;29.53;15.37;;;-1.10;99.90;-2.20;99409;;;;588048;238;24046;-78
2023/03/13 00:46:00;;;;;;;30.50;16.00;;;-1.10;99.90;-2.10;99413;;;;592761;238;24024;-75
2023/03/13 00:48:27;;;;;;;29.53;15.23;;;-1.00;99.90;-2.10;99412;;;;592786;238;24049;-74
2023/03/13 00:50:55;;;;;;;29.77;14.20;;;-1.00;99.90;-2.00;99414;;;;592840;238;24012;-75
2023/03/13 00:53:23;;;;;;;29.23;14.33;;;-0.90;99.90;-2.00;99401;;;;593109;236;24082;-74
2023/03/13 00:55:57;;;;;;;24.23;13.27;;;-0.90;99.90;-2.00;99399;;;;594200;238;24024;-73
2023/03/13 00:58:25;;;;;;;22.03;11.13;;;-0.80;99.90;-1.90;99382;;;;588809;238;24136;-74
2023/03/13 01:00:53;;;;;;;19.67;10.97;;;-0.80;99.90;-1.80;99384;;;;588575;238;24255;-77
2023/03/13 01:03:24;;;;;;;21.20;11.00;;;-0.70;99.90;-1.80;99362;;;;592871;238;24070;-80
2023/03/13 01:05:55;;;;;;;17.67;10.00;;;-0.70;99.90;-1.70;99360;;;;592492;238;24047;-78
2023/03/13 01:08:23;;;;;;;21.97;10.33;;;-0.60;99.90;-1.70;99345;;;;592621;238;24036;-74
2023/03/13 01:10:51;;;;;;;21.07;10.87;;;-0.60;99.90;-1.60;99345;;;;593011;238;24020;-81
2023/03/13 01:13:19;;;;;;;23.37;10.67;;;-0.50;99.90;-1.60;99340;;;;592705;238;24042;-85
2023/03/13 01:15:47;;;;;;;18.43;10.20;;;-0.50;99.90;-1.60;99335;;;;593028;238;24066;-81
2023/03/13 01:18:14;;;;;;;20.37;10.17;;;-0.50;99.90;-1.60;99327;;;;593026;238;24078;-75
2023/03/13 01:20:42;;;;;;;20.33;11.68;;;-0.50;99.90;-1.50;99327;;;;587950;238;34976;-74
2023/03/13 01:23:11;;;;;;;18.87;6.63;;;-0.40;99.90;-1.50;99324;;;;592988;238;24025;-74
2023/03/13 01:25:40;;;;;;;15.23;9.70;;;-0.40;99.90;-1.40;99313;;;;593083;238;24020;-75
2023/03/13 01:28:08;;;;;;;20.85;11.20;;;-0.40;99.90;-1.40;99324;;;;587838;238;34953;-81
2023/03/13 01:30:36;;;;;;;14.67;7.27;;;-0.30;99.90;-1.40;99314;;;;592866;238;24047;-78
2023/03/13 01:33:03;;;;;;;16.90;9.63;;;-0.30;99.90;-1.40;99316;;;;592764;238;24026;-74
2023/03/13 01:35:31;;;;;;;19.87;11.27;;;-0.20;99.90;-1.30;99309;;;;592775;238;24043;-74
2023/03/13 01:37:59;;;;;;;20.87;11.83;;;-0.20;99.90;-1.30;99299;;;;592769;238;24016;-76
2023/03/13 01:40:27;;;;;;;20.90;11.03;;;-0.20;99.90;-1.30;99283;;;;602145;238;24041;-74
2023/03/13 01:42:55;;;;;;;22.37;12.00;;;-0.20;99.90;-1.30;99286;;;;592823;238;24056;-74
2023/03/13 01:45:54;;;;;;;20.67;11.50;;;-0.20;99.90;-1.30;99271;;;;592790;238;24043;-75
2023/03/13 01:48:22;;;;;;;23.23;11.73;;;-0.20;99.90;-1.30;99285;;;;592802;238;24092;-76
2023/03/13 01:50:51;;;;;;;17.33;11.43;;;-0.20;99.90;-1.30;99272;;;;592598;238;24040;-74
2023/03/13 01:53:19;;;;;;;22.03;12.23;;;-0.30;99.90;-1.40;99280;;;;592705;238;24046;-74
2023/03/13 01:55:47;;;;;;;22.60;10.97;;;-0.30;99.90;-1.40;99286;;;;592770;238;24017;-75
2023/03/13 01:58:15;;;;;;;22.40;12.27;;;-0.30;99.90;-1.40;99280;;;;601992;238;24080;-75
2023/03/13 02:00:43;;;;;;;26.93;12.03;;;-0.30;99.90;-1.40;99268;;;;592597;238;24031;-75
2023/03/13 02:03:11;;;;;;;22.93;10.83;;;-0.30;99.90;-1.30;99268;;;;601760;238;24061;-75
2023/03/13 02:05:39;;;;;;;24.53;12.10;;;-0.20;99.90;-1.30;99264;;;;588740;238;24017;-74
2023/03/13 02:08:19;;;;;;;22.10;11.00;;;-0.20;99.90;-1.30;99249;;;;589062;238;24046;-75
2023/03/13 02:10:50;;;;;;;19.13;12.13;;;-0.20;99.90;-1.30;99252;;;;593163;238;24103;-75
2023/03/13 02:13:17;;;;;;;17.23;11.13;;;-0.20;99.90;-1.30;99257;;;;592609;238;25079;-74
2023/03/13 02:15:45;;;;;;;22.33;11.33;;;-0.20;99.90;-1.20;99259;;;;593301;238;24070;-75
2023/03/13 02:18:13;;;;;;;20.43;11.27;;;-0.10;99.90;-1.20;99270;;;;593317;238;24038;-75
2023/03/13 02:20:41;;;;;;;23.53;11.37;;;-0.10;99.90;-1.20;99272;;;;593269;238;24397;-74
2023/03/13 02:23:24;;;;;;;21.67;11.33;;;-0.10;99.90;-1.20;99274;;;;602642;238;24040;-73
2023/03/13 02:25:52;;;;;;;17.47;11.17;;;-0.10;99.90;-1.10;99269;;;;590968;238;24062;-73
2023/03/13 02:28:21;;;;;;;21.57;10.93;;;0.00;99.90;-1.10;99269;;;;593994;238;24071;-76
2023/03/13 02:30:49;;;;;;;21.17;10.57;;;-0.10;99.90;-1.10;99271;;;;592659;238;24052;-75
2023/03/13 02:33:17;;;;;;;16.63;10.77;;;0.00;99.90;-1.00;99273;;;;592868;238;24028;-73
2023/03/13 02:35:44;;;;;;;23.40;13.60;;;0.00;99.90;-1.00;99276;;;;587279;238;45839;-74
2023/03/13 02:38:12;;;;;;;16.90;6.60;;;0.10;99.90;-1.00;99280;;;;592991;238;24024;-74
2023/03/13 02:40:40;;;;;;;13.67;7.20;;;0.10;99.90;-0.90;99272;;;;592829;238;24017;-75
2023/03/13 02:43:11;;;;;;;15.53;8.93;;;0.10;99.90;-0.90;99281;;;;602088;238;24045;-75
2023/03/13 02:45:39;;;;;;;23.30;10.83;;;0.20;99.90;-0.80;99284;;;;587634;238;24039;-76
2023/03/13 02:48:07;;;;;;;23.27;11.03;;;0.20;99.90;-0.80;99273;;;;592756;238;24037;-73
2023/03/13 02:50:35;;;;;;;20.33;10.87;;;0.20;99.90;-0.80;99264;;;;592795;238;24035;-73
2023/03/13 02:53:05;;;;;;;26.43;10.53;;;0.30;99.90;-0.80;99257;;;;599164;238;24026;-73
2023/03/13 02:55:39;;;;;;;24.03;11.40;;;0.30;99.90;-0.80;99263;;;;592738;238;24032;-74
2023/03/13 02:58:07;;;;;;;17.97;11.00;;;0.30;99.90;-0.80;99261;;;;592425;238;24036;-74
2023/03/13 03:00:35;;;;;;;16.90;11.43;;;0.30;99.90;-0.80;99253;;;;587663;238;24070;-74
2023/03/13 03:03:04;;;;;;;17.93;10.53;;;0.30;99.90;-0.80;99254;;;;592271;238;25094;-74
2023/03/13 03:05:32;;;;;;;17.90;11.37;;;0.30;99.90;-0.80;99255;;;;592252;238;24042;-77
2023/03/13 03:08:00;;;;;;;19.73;11.13;;;0.30;99.90;-0.70;99248;;;;592525;238;24040;-76
2023/03/13 03:10:28;;;;;;;16.33;10.00;;;0.30;99.90;-0.70;99239;;;;592355;238;24025;-74
2023/03/13 03:12:56;;;;;;;14.10;9.43;;;0.30;99.90;-0.70;99232;;;;592292;238;24094;-78
2023/03/13 03:15:24;;;;;;;17.20;10.68;;;0.40;99.90;-0.60;99217;;;;587597;238;45826;-75
2023/03/13 03:17:52;;;;;;;17.00;7.13;;;0.40;99.90;-0.60;99211;;;;593936;238;24027;-74
2023/03/13 03:20:20;;;;;;;7.53;5.53;;;0.40;99.90;-0.60;99214;;;;593937;238;24078;-75
2023/03/13 03:22:48;;;;;;;17.80;8.63;;;0.40;99.90;-0.60;99224;;;;593676;238;24037;-75
2023/03/13 03:25:16;;;;;;;17.93;9.57;;;0.40;99.90;-0.60;99215;;;;593675;238;24065;-76
2023/03/13 03:27:44;;;;;;;18.37;10.07;;;0.40;99.90;-0.60;99213;;;;593291;238;25080;-74
2023/03/13 03:30:12;;;;;;;17.67;11.03;;;0.40;99.90;-0.60;99212;;;;593330;238;24018;-76
2023/03/13 03:32:43;;;;;;;17.63;10.53;;;0.50;99.90;-0.60;99194;;;;593337;238;24107;-74
2023/03/13 03:35:08;;;;;;;18.43;10.23;;;0.50;99.90;-0.60;99192;;;;599305;238;24073;-75
2023/03/13 03:37:36;;;;;;;18.50;10.40;;;0.50;99.90;-0.60;99184;;;;593057;238;24052;-74
2023/03/13 03:40:06;;;;;;;17.73;9.67;;;0.50;99.90;-0.50;99185;;;;592994;238;24035;-74
2023/03/13 03:42:34;;;;;;;18.47;9.60;;;0.50;99.90;-0.50;99179;;;;596450;238;24027;-74
2023/03/13 03:45:07;;;;;;;17.37;9.50;;;0.50;99.90;-0.50;99166;;;;593096;238;24018;-75
2023/03/13 03:47:31;;;;;;;16.00;9.13;;;0.50;99.90;-0.50;99175;;;;587409;238;35049;-75
2023/03/13 03:49:59;;;;;;;10.47;5.43;;;0.60;99.90;-0.40;99178;;;;593072;238;24035;-75
2023/03/13 03:52:26;;;;;;;15.90;6.37;;;0.60;99.90;-0.50;99172;;;;592939;238;24068;-75
2023/03/13 03:54:55;;;;;;;7.63;4.83;;;0.60;99.90;-0.40;99163;;;;592779;238;24033;-75
2023/03/13 03:57:26;;;;;;;13.63;6.57;;;0.60;99.90;-0.40;99147;;;;592709;238;24054;-75
2023/03/13 03:59:51;;;;;;;8.03;4.93;;;0.60;99.90;-0.40;99150;;;;587485;238;24044;-75
2023/03/13 04:02:19;;;;;;;15.47;6.57;;;0.70;99.90;-0.40;99152;;;;592442;238;24050;-75
2023/03/13 04:04:47;;;;;;;13.93;7.47;;;0.70;99.90;-0.40;99143;;;;592720;238;24038;-74
2023/03/13 04:07:15;;;;;;;15.57;9.23;;;0.70;99.90;-0.40;99158;;;;592794;238;24037;-74
2023/03/13 04:09:43;;;;;;;12.77;8.63;;;0.70;99.90;-0.40;99157;;;;592765;238;24013;-74
2023/03/13 04:12:11;;;;;;;18.43;8.87;;;0.70;99.90;-0.30;99158;;;;592741;238;24039;-74
2023/03/13 04:14:39;;;;;;;12.97;8.47;;;0.70;99.90;-0.30;99150;;;;592717;238;24056;-73
2023/03/13 04:17:07;;;;;;;14.33;9.63;;;0.70;99.90;-0.30;99141;;;;592303;238;24035;-75
2023/03/13 04:19:35;;;;;;;17.73;8.80;;;0.70;99.90;-0.30;99146;;;;592453;238;24030;-76
2023/03/13 04:22:03;;;;;;;16.70;9.80;;;0.80;99.90;-0.20;99136;;;;592321;238;24033;-74
2023/03/13 04:24:31;;;;;;;11.60;8.60;;;0.80;99.90;-0.20;99134;;;;592552;238;24023;-74
2023/03/13 04:27:00;;;;;;;18.20;8.40;;;0.80;99.90;-0.10;99136;;;;592418;238;24069;-75
2023/03/13 04:29:27;;;;;;;16.53;9.67;;;0.80;99.90;-0.10;99127;;;;593375;238;24021;-74
2023/03/13 04:31:55;;;;;;;16.13;8.73;;;0.90;99.90;-0.10;99114;;;;593618;238;24018;-74
2023/03/13 04:34:22;;;;;;;13.53;7.73;;;0.90;99.90;-0.10;99108;;;;602580;238;24035;-75
2023/03/13 04:36:51;;;;;;;9.77;5.57;;;1.00;99.90;-0.10;99102;;;;593323;238;25059;-74
2023/03/13 04:39:23;;;;;;;10.50;6.47;;;0.90;99.90;0.00;99103;;;;592973;238;24066;-74
2023/03/13 04:41:47;;;;;;;9.10;4.83;;;1.00;99.90;0.00;99113;;;;592575;238;24062;-74
2023/03/13 04:44:15;;;;;;;9.80;4.17;;;1.00;99.90;0.00;99108;;;;593050;238;24040;-74
2023/03/13 04:46:43;;;;;;;4.67;4.17;;;1.00;99.90;0.00;99099;;;;592983;238;24090;-74
2023/03/13 04:49:11;;;;;;;8.23;4.70;;;1.00;99.90;0.00;99098;;;;593000;238;24037;-74
2023/03/13 04:51:39;;;;;;;8.33;5.37;;;1.10;99.90;0.00;99106;;;;592720;238;24066;-75
2023/03/13 04:54:06;;;;;;;6.43;5.07;;;1.10;99.90;0.10;99094;;;;592754;238;24046;-75
2023/03/13 04:56:34;;;;;;;7.03;4.60;;;1.10;99.90;0.10;99092;;;;592665;238;24023;-74
2023/03/13 04:59:02;;;;;;;7.17;4.73;;;1.10;99.90;0.20;99083;;;;592617;238;24044;-73
2023/03/13 05:01:33;;;;;;;5.50;4.67;;;1.20;99.90;0.20;99070;;;;593013;238;24031;-75
2023/03/13 05:03:58;;;;;;;8.20;4.63;;;1.20;99.90;0.20;99069;;;;592685;238;24056;-74
2023/03/13 05:06:26;;;;;;;13.47;5.83;;;1.20;99.90;0.30;99069;;;;592494;238;24052;-74
2023/03/13 05:08:54;;;;;;;13.30;5.67;;;1.20;99.90;0.30;99077;;;;592383;238;24158;-75
2023/03/13 05:11:25;;;;;;;9.50;4.83;;;1.30;99.90;0.30;99062;;;;592259;238;24078;-78
2023/03/13 05:13:50;;;;;;;9.47;5.37;;;1.30;99.90;0.40;99074;;;;601715;238;24066;-76
2023/03/13 05:16:18;;;;;;;9.17;5.80;;;1.40;99.90;0.40;99060;;;;592314;238;24049;-74
2023/03/13 05:18:45;;;;;;;14.53;4.90;;;1.40;99.90;0.40;99055;;;;592843;238;24101;-74
2023/03/13 05:21:13;;;;;;;10.83;6.00;;;1.40;99.90;0.50;99039;;;;592801;238;24024;-75
2023/03/13 05:23:41;;;;;;;16.13;6.60;;;1.50;99.90;0.50;99041;;;;602104;238;24052;-74
2023/03/13 05:26:10;;;;;;;12.67;6.40;;;1.60;99.90;0.60;99053;;;;592791;238;24071;-73
2023/03/13 05:28:38;;;;;;;12.80;5.70;;;1.50;99.90;0.60;99041;;;;592812;238;24077;-74
2023/03/13 05:31:06;;;;;;;12.03;5.40;;;1.60;99.90;0.70;99040;;;;592768;238;24035;-76
2023/03/13 05:33:34;;;;;;;19.33;10.20;;;1.60;99.90;0.70;99040;;;;587633;238;34988;-74
2023/03/13 05:36:01;;;;;;;13.40;6.33;;;1.70;99.90;0.70;99042;;;;592768;238;24016;-73
2023/03/13 05:38:29;;;;;;;13.83;6.43;;;1.70;99.90;0.80;99039;;;;592793;238;24060;-75
2023/03/13 05:40:57;;;;;;;10.13;5.03;;;1.80;99.90;0.80;99029;;;;593913;238;24051;-74
2023/03/13 05:43:25;;;;;;;14.20;7.10;;;1.80;99.90;0.90;99044;;;;593940;238;24057;-74
2023/03/13 05:45:53;;;;;;;19.57;6.13;;;1.80;99.90;0.90;99043;;;;593621;238;24025;-74
2023/03/13 05:48:21;;;;;;;8.07;6.30;;;1.90;99.90;0.90;99032;;;;593552;238;24037;-76
2023/03/13 05:50:49;;;;;;;16.07;6.17;;;1.90;99.90;1.00;99026;;;;593294;238;24047;-76
2023/03/13 05:53:17;;;;;;;17.83;7.27;;;2.00;99.90;1.00;99010;;;;593351;238;24049;-75
2023/03/13 05:55:45;;;;;;;14.03;6.90;;;2.00;99.90;1.10;99024;;;;593270;238;24059;-74
2023/03/13 05:58:13;;;;;;;16.70;7.37;;;2.00;99.90;1.10;99021;;;;592910;238;24056;-77
2023/03/13 06:00:42;;;;;;;12.97;6.00;;;2.10;99.90;1.10;99016;;;;593036;238;24063;-74
2023/03/13 06:03:08;;;;;;;13.03;6.87;;;2.10;99.90;1.10;99021;;;;592975;238;24024;-75
2023/03/13 06:05:36;;;;;;;15.13;7.17;;;2.10;99.90;1.20;99012;;;;592953;238;24019;-74
2023/03/13 06:08:07;;;;;;;13.03;5.93;;;2.10;99.90;1.20;99016;;;;592664;238;24035;-74
2023/03/13 06:10:37;;;;;;;14.60;6.23;;;2.20;99.90;1.30;99005;;;;595598;238;24101;-73
2023/03/13 06:13:01;;;;;;;16.53;8.53;;;2.20;99.90;1.30;98997;;;;592508;238;24055;-74
2023/03/13 06:15:29;;;;;;;15.37;8.40;;;2.30;99.90;1.40;99003;;;;592583;238;24027;-74
2023/03/13 06:17:57;;;;;;;14.70;7.10;;;2.30;99.90;1.40;98999;;;;592390;238;24120;-73
2023/03/13 06:20:25;;;;;;;19.47;8.33;;;2.40;99.90;1.50;98987;;;;592826;238;24024;-74
2023/03/13 06:22:53;;;;;;;17.03;7.87;;;2.40;99.90;1.60;98996;;;;592834;238;24024;-74
2023/03/13 06:25:21;;;;;;;17.40;7.63;;;2.50;99.90;1.60;98992;;;;592776;238;24067;-74
2023/03/13 06:27:49;;;;;;;17.10;6.97;;;2.60;99.90;1.70;98981;;;;592798;238;24071;-74
2023/03/13 06:30:20;;;;;;;13.43;6.70;;;2.60;99.90;1.70;98983;;;;582610;237;24035;-76
2023/03/13 06:32:45;;;;;;;19.63;7.43;;;2.70;99.90;1.80;98974;;;;580289;244;23974;-74
2023/03/13 06:35:13;;;;;;;17.57;7.63;;;2.70;99.90;1.80;98962;;;;600517;238;23999;-78
2023/03/13 06:37:41;;;;;;;14.07;6.70;;;2.80;99.90;1.80;98964;;;;588750;243;24068;-78
2023/03/13 06:40:09;;;;;;;20.93;7.97;;;2.80;99.90;1.90;98972;;;;600556;238;23944;-79
2023/03/13 06:42:37;;;;;;;17.40;7.83;;;2.80;99.90;1.90;98964;;;;588770;243;23980;-76
2023/03/13 06:45:05;;;;;;;22.62;13.05;;;2.90;99.90;1.90;98961;;;;595726;238;34060;-76
2023/03/13 06:47:33;;;;;;;21.13;9.50;;;2.90;99.90;2.00;98951;;;;591268;239;23975;-75
2023/03/13 06:50:01;;;;;;;20.07;9.53;;;3.00;99.90;2.10;98956;;;;588796;243;24042;-75
2023/03/13 06:52:29;;;;;;;22.17;8.20;;;3.00;99.90;2.10;98955;;;;601686;237;24009;-75
2023/03/13 06:54:57;;;;;;;15.33;8.17;;;3.10;99.90;2.20;98957;;;;590020;242;23978;-72
2023/03/13 06:57:26;;;;;;;16.33;8.00;;;3.20;99.90;2.30;98949;;;;599017;238;24020;-74
2023/03/13 06:59:54;;;;;;;19.80;8.63;;;3.20;99.90;2.30;98935;;;;590154;242;24019;-74
2023/03/13 07:02:23;;;;;;;12.93;6.27;;;3.30;99.90;2.30;98939;;;;589823;242;23991;-74
2023/03/13 07:04:50;;;;;;;16.83;7.97;;;3.30;99.90;2.40;98945;;;;589793;243;23954;-74
2023/03/13 07:07:18;;;;;;;10.27;7.17;;;3.30;99.90;2.40;98938;;;;589825;243;23983;-74
2023/03/13 07:09:46;;;;;;;23.00;9.70;;;3.40;99.90;2.40;98937;;;;590221;242;23971;-74
2023/03/13 07:12:14;;;;;;;18.83;8.43;;;3.40;99.90;2.50;98939;;;;590062;243;24016;-73
2023/03/13 07:14:42;;;;;;;13.33;7.27;;;3.50;99.90;2.60;98935;;;;590046;243;24062;-77
2023/03/13 07:17:10;;;;;;;18.37;7.97;;;3.60;99.90;2.70;98943;;;;590030;243;24035;-77
2023/03/13 07:19:38;;;;;;;17.60;8.43;;;3.70;99.90;2.80;98941;;;;590043;243;23961;-78
2023/03/13 07:22:06;;;;;;;17.53;7.70;;;3.80;99.90;2.90;98931;;;;589708;243;23978;-76
2023/03/13 07:24:33;;;;;;;14.23;6.57;;;3.80;99.90;2.90;98921;;;;589543;243;24005;-78
2023/03/13 07:27:01;;;;;;;16.27;7.27;;;3.90;99.90;3.00;98920;;;;589720;243;23958;-77
2023/03/13 07:29:29;;;;;;;10.93;6.27;;;3.90;99.90;3.00;98917;;;;589391;243;23977;-75
2023/03/13 07:31:57;;;;;;;15.27;7.40;;;3.90;99.90;3.00;98904;;;;589326;243;23979;-77
2023/03/13 07:34:25;;;;;;;20.10;7.90;;;3.90;99.90;3.10;98907;;;;589410;243;24006;-76
2023/03/13 07:36:53;;;;;;;12.50;6.40;;;4.00;99.90;3.20;98900;;;;589329;243;23973;-77
2023/03/13 07:39:21;;;;;;;16.87;6.83;;;4.10;99.90;3.20;98895;;;;589440;242;23967;-77
2023/03/13 07:41:49;;;;;;;14.87;6.67;;;4.10;99.90;3.30;98886;;;;589006;241;23999;-78
2023/03/13 07:44:17;;;;;;;18.37;7.37;;;4.20;99.90;3.40;98891;;;;589734;243;23988;-76
2023/03/13 07:46:47;;;;;;;17.80;7.67;;;4.30;99.90;3.50;98879;;;;589849;243;24001;-75
2023/03/13 07:49:12;;;;;;;10.43;6.57;;;4.40;99.90;3.60;98880;;;;589588;243;23958;-76
2023/03/13 07:51:40;;;;;;;16.27;7.30;;;4.50;99.90;3.60;98865;;;;580748;243;23946;-76
2023/03/13 07:54:08;;;;;;;10.67;6.50;;;4.50;99.90;3.80;98871;;;;589772;242;24033;-76
2023/03/13 07:56:37;;;;;;;18.10;11.02;;;4.70;99.90;3.80;98860;;;;584582;243;34298;-75
2023/03/13 07:59:08;;;;;;;16.77;10.00;;;4.70;99.90;3.80;98862;;;;589362;239;24010;-76
2023/03/13 08:01:33;;;;;;;19.07;9.13;;;4.70;99.90;3.90;98866;;;;579938;243;23973;-75
2023/03/13 08:04:04;;;;;;;16.80;8.50;;;4.80;99.90;4.00;98863;;;;590479;242;23964;-75
2023/03/13 08:06:31;;;;;;;15.57;7.90;;;4.90;99.90;4.00;98861;;;;584901;243;24007;-75
2023/03/13 08:08:59;;;;;;;11.53;7.80;;;5.00;99.90;4.20;98858;;;;578823;243;24010;-76
2023/03/13 08:11:30;;;;;;;12.63;7.27;;;5.10;99.90;4.30;98859;;;;581542;243;23976;-76
2023/03/13 08:13:55;;;;;;;10.03;7.10;;;5.20;99.90;4.30;98866;;;;580472;243;24065;-75
2023/03/13 08:16:28;;;;;;;12.47;7.10;;;5.20;99.90;4.40;98851;;;;581227;243;23965;-76
2023/03/13 08:18:56;;;;;;;19.67;8.47;;;5.30;99.90;4.40;98845;;;;578819;243;24048;-77
2023/03/13 08:21:24;;;;;;;12.13;7.43;;;5.30;99.90;4.50;98842;;;;581120;243;24012;-74
2023/03/13 08:23:55;;;;;;;12.17;6.00;;;5.40;99.90;4.60;98838;;;;580292;243;24026;-78
2023/03/13 08:26:23;;;;;;;13.30;7.80;;;5.50;99.90;4.70;98835;;;;580513;243;23968;-74
2023/03/13 08:28:57;;;;;;;13.00;7.77;;;5.60;99.90;4.80;98839;;;;580493;243;25032;-75
2023/03/13 08:31:25;;;;;;;15.90;6.83;;;5.60;99.90;4.90;98836;;;;580355;243;24039;-73
2023/03/13 08:33:52;;;;;;;13.27;7.40;;;5.80;99.90;5.00;98833;;;;580547;243;24003;-76
2023/03/13 08:36:26;;;;;;;13.87;7.10;;;5.90;99.90;5.10;98826;;;;580994;243;23966;-75
2023/03/13 08:38:54;;;;;;;13.00;8.53;;;6.00;99.90;5.20;98822;;;;578094;243;24013;-75
2023/03/13 08:41:23;;;;;;;16.27;7.67;;;6.20;99.90;5.30;98816;;;;580325;243;23994;-75
2023/03/13 08:43:54;;;;;;;19.53;8.87;;;6.20;99.90;5.30;98814;;;;580302;243;24011;-74
2023/03/13 08:46:22;;;;;;;16.03;7.67;;;6.20;99.90;5.40;98811;;;;577769;243;23973;-75
2023/03/13 08:48:53;;;;;;;17.70;8.40;;;6.30;99.90;5.30;98799;;;;589329;243;23976;-74
2023/03/13 08:51:21;;;;;;;22.73;10.03;;;6.20;99.90;5.30;98795;;;;579502;243;23979;-74
2023/03/13 08:53:48;;;;;;;22.73;10.13;;;6.20;99.90;5.20;98802;;;;588069;243;24014;-75
2023/03/13 08:56:13;;;;;;;21.00;9.40;;;6.10;99.90;5.20;98787;;;;580186;243;23988;-74
2023/03/13 08:58:41;;;;;;;15.03;8.00;;;6.10;99.90;5.30;98788;;;;580292;243;23978;-75
2023/03/13 09:01:12;;;;;;;23.83;9.03;;;6.10;99.90;5.30;98775;;;;589742;243;23995;-75
2023/03/13 09:03:43;;;;;;;24.07;11.37;;;6.10;99.90;5.20;98791;;;;580766;243;23982;-77
2023/03/13 09:06:11;;;;;;;21.77;10.57;;;6.10;99.90;5.30;98775;;;;580463;243;25015;-76
2023/03/13 09:08:36;;;;;;;22.13;9.97;;;6.10;99.90;5.30;98774;;;;575737;243;24036;-74
2023/03/13 09:11:07;;;;;;;24.00;10.27;;;6.20;99.90;5.30;98772;;;;578318;243;23998;-75
2023/03/13 09:13:38;;;;;;;16.70;9.70;;;6.20;99.90;5.40;98765;;;;580380;243;24002;-75
2023/03/13 09:16:04;;;;;;;18.10;9.70;;;6.20;99.90;5.30;98768;;;;585079;243;23976;-75
2023/03/13 09:18:32;;;;;;;20.93;11.57;;;6.20;99.90;5.20;98762;;;;590367;243;23994;-77
2023/03/13 09:21:00;;;;;;;19.47;10.87;;;6.10;99.90;5.20;98758;;;;584892;243;23992;-75
2023/03/13 09:23:27;;;;;;;20.70;10.37;;;6.10;99.90;5.30;98757;;;;590282;241;23976;-75
2023/03/13 09:25:59;;;;;;;21.60;10.83;;;6.10;99.90;5.30;98752;;;;590307;242;24018;-75
2023/03/13 09:28:23;;;;;;;23.53;11.77;;;6.10;99.90;5.20;98752;;;;589915;243;23974;-75
2023/03/13 09:30:51;;;;;;;20.93;11.83;;;6.10;99.90;5.10;98743;;;;576389;243;23970;-74
2023/03/13 09:33:23;;;;;;;23.23;10.03;;;6.00;99.90;5.10;98738;;;;581106;243;23985;-75
2023/03/13 09:35:54;;;;;;;21.67;10.83;;;6.00;99.90;5.10;98741;;;;579436;243;23988;-76
2023/03/13 09:38:18;;;;;;;19.00;9.73;;;6.00;99.90;5.10;98737;;;;580822;243;24048;-73
2023/03/13 09:40:49;;;;;;;27.57;11.80;;;5.90;99.90;5.10;98726;;;;578464;243;23998;-74
2023/03/13 09:43:38;;;;;;;33.30;11.97;;;6.00;99.90;5.10;98733;;;;581063;243;23975;-75
2023/03/13 09:46:06;;;;;;;19.33;10.67;;;6.00;99.90;5.30;98716;;;;580902;243;24185;-75
2023/03/13 09:48:34;;;;;;;19.40;9.23;;;6.10;99.90;5.50;98724;;;;575797;243;23965;-78
2023/03/13 09:51:11;;;;;;;23.57;11.33;;;6.30;99.90;5.60;98721;;;;580863;243;24000;-79
2023/03/13 09:53:47;;;;;;;31.10;13.80;;;6.50;99.90;5.70;98711;;;;575939;243;23993;-74
2023/03/13 09:56:21;;;;;;;35.67;13.60;;;6.50;99.90;5.70;98712;;;;579753;243;24159;-73
2023/03/13 09:58:58;;;;;;;23.90;10.93;;;6.60;99.90;5.80;98713;;;;574978;243;24015;-75
2023/03/13 10:01:26;;;;;;;27.87;12.10;;;6.60;99.90;5.70;98703;;;;575935;243;24013;-77
2023/03/13 10:04:18;;;;;;;21.27;12.00;;;6.60;99.90;5.80;98696;;;;575856;243;24020;-79
2023/03/13 10:06:46;;;;;;;21.63;10.67;;;6.60;99.90;5.70;98692;;;;589792;242;23994;-76
2023/03/13 10:09:35;;;;;;;28.23;12.53;;;6.60;99.90;5.70;98686;;;;576002;243;23982;-78
2023/03/13 10:12:24;;;;;;;15.87;9.87;;;6.50;99.90;5.70;98680;;;;589557;240;23978;-77
2023/03/13 10:15:16;;;;;;;21.50;11.27;;;6.60;99.90;5.80;98675;;;;581382;243;24047;-77
2023/03/13 10:17:44;;;;;;;17.00;11.37;;;6.60;99.90;5.80;98674;;;;589367;241;23966;-74
2023/03/13 10:20:27;;;;;;;14.90;9.90;;;6.60;99.90;5.80;98671;;;;580341;243;24001;-76
2023/03/13 10:23:07;;;;;;;17.57;10.53;;;6.60;99.90;5.80;98657;;;;589121;243;24030;-78
2023/03/13 10:25:38;;;;;;;22.47;11.83;;;6.60;99.90;5.70;98663;;;;580161;243;24028;-78
2023/03/13 10:28:07;;;;;;;18.13;9.93;;;6.50;99.90;5.70;98656;;;;582173;243;24015;-77
2023/03/13 10:30:42;;;;;;;15.93;10.73;;;6.50;99.90;5.70;98656;;;;580942;243;25033;-77
2023/03/13 10:33:09;;;;;;;16.80;8.97;;;6.50;99.90;5.60;98655;;;;581444;243;24016;-76
2023/03/13 10:35:42;;;;;;;22.00;12.87;;;6.50;99.90;5.60;98649;;;;590412;242;24011;-77
2023/03/13 10:38:18;;;;;;;18.70;11.97;;;6.40;99.90;5.60;98641;;;;576467;243;23962;-75
2023/03/13 10:40:59;;;;;;;23.53;11.27;;;6.40;99.90;5.60;98641;;;;581340;243;23993;-76
2023/03/13 10:43:27;;;;;;;17.70;10.90;;;6.40;99.90;5.60;98631;;;;581272;243;24017;-76
2023/03/13 10:45:55;;;;;;;17.60;10.97;;;6.40;99.90;5.60;98620;;;;581065;243;24007;-77
2023/03/13 10:48:25;;;;;;;17.70;10.53;;;6.40;99.90;5.60;98624;;;;589921;243;24001;-75
2023/03/13 10:50:53;;;;;;;16.30;9.90;;;6.40;99.90;5.50;98615;;;;576081;243;23997;-77
2023/03/13 10:53:30;;;;;;;17.83;10.50;;;6.40;99.90;5.60;98607;;;;580782;243;23989;-79
2023/03/13 10:56:10;;;;;;;20.17;9.33;;;6.40;99.90;5.60;98598;;;;576190;243;23973;-79
2023/03/13 10:58:49;;;;;;;18.93;10.70;;;6.40;99.90;5.60;98584;;;;580372;243;24001;-78
2023/03/13 11:01:30;;;;;;;16.80;10.63;;;6.40;99.90;5.60;98570;;;;589244;241;24016;-78
2023/03/13 11:03:59;;;;;;;16.10;9.13;;;6.40;99.90;5.70;98584;;;;589062;243;24035;-79
2023/03/13 11:06:33;;;;;;;28.03;17.10;;;6.40;99.90;5.60;98566;;;;578498;243;45126;-79
2023/03/13 11:09:13;;;;;;;18.20;12.67;;;6.50;99.90;5.60;98571;;;;589084;243;24101;-78
2023/03/13 11:11:50;;;;;;;21.37;12.87;;;6.40;99.90;5.60;98558;;;;579875;243;23984;-79
2023/03/13 11:14:24;;;;;;;15.40;9.40;;;6.50;99.90;5.60;98559;;;;575415;243;23975;-76
2023/03/13 11:16:55;;;;;;;19.27;10.40;;;6.40;99.90;5.70;98551;;;;580634;243;23993;-75
2023/03/13 11:19:29;;;;;;;17.47;10.17;;;6.50;99.90;5.60;98538;;;;580332;243;23972;-78
2023/03/13 11:22:05;;;;;;;16.27;10.33;;;6.50;99.90;5.60;98540;;;;589428;243;24014;-76
2023/03/13 11:24:48;;;;;;;14.87;9.40;;;6.50;99.90;5.60;98529;;;;589208;243;23966;-77
2023/03/13 11:27:49;;;;;;;17.13;9.57;;;6.50;99.90;5.70;98524;;;;577725;243;23985;-77